sensor_id;sensor_type;location;lat;lon;timestamp;pressure;altitude;pressure_sealevel;temperature;humidity
17649;BME280;8943;51.110;-4.158;2023-02-12T00:01:15;103282.44;;;11.10;49.56
17649;BME280;8943;51.110;-4.158;2023-02-12T00:03:43;103292.25;;;11.09;49.98
17649;BME280;8943;51.110;-4.158;2023-02-12T00:06:13;103287.78;;;11.10;49.81
17649;BME280;8943;51.110;-4.158;2023-02-12T00:08:41;103279.84;;;11.08;49.57
17649;BME280;8943;51.110;-4.158;2023-02-12T00:11:12;103276.41;;;11.05;49.83
17649;BME280;8943;51.110;-4.158;2023-02-12T00:13:41;103288.09;;;11.01;49.48
17649;BME280;8943;51.110;-4.158;2023-02-12T00:16:11;103276.63;;;10.99;49.87
17649;BME280;8943;51.110;-4.158;2023-02-12T00:18:40;103277.50;;;10.99;49.83
17649;BME280;8943;51.110;-4.158;2023-02-12T00:21:08;103273.88;;;11.00;50.09
17649;BME280;8943;51.110;-4.158;2023-02-12T00:23:39;103279.13;;;11.03;49.59
17649;BME280;8943;51.110;-4.158;2023-02-12T00:26:08;103284.41;;;11.05;49.82
17649;BME280;8943;51.110;-4.158;2023-02-12T00:28:37;103283.38;;;11.09;49.87
17649;BME280;8943;51.110;-4.158;2023-02-12T00:31:06;103285.88;;;11.14;49.85
17649;BME280;8943;51.110;-4.158;2023-02-12T00:33:34;103274.13;;;11.19;49.95
17649;BME280;8943;51.110;-4.158;2023-02-12T00:36:03;103274.91;;;11.23;49.80
17649;BME280;8943;51.110;-4.158;2023-02-12T00:38:32;103281.97;;;11.24;50.04
17649;BME280;8943;51.110;-4.158;2023-02-12T00:41:01;103275.59;;;11.28;49.88
17649;BME280;8943;51.110;-4.158;2023-02-12T00:43:29;103269.19;;;11.32;50.22
17649;BME280;8943;51.110;-4.158;2023-02-12T00:45:57;103270.84;;;11.36;49.93
17649;BME280;8943;51.110;-4.158;2023-02-12T00:48:25;103271.50;;;11.43;50.04
17649;BME280;8943;51.110;-4.158;2023-02-12T00:50:53;103261.56;;;11.46;49.74
17649;BME280;8943;51.110;-4.158;2023-02-12T00:53:21;103264.94;;;11.51;49.84
17649;BME280;8943;51.110;-4.158;2023-02-12T00:55:49;103258.63;;;11.54;49.75
17649;BME280;8943;51.110;-4.158;2023-02-12T00:58:19;103247.16;;;11.52;49.38
17649;BME280;8943;51.110;-4.158;2023-02-12T01:00:47;103254.38;;;11.48;49.45
17649;BME280;8943;51.110;-4.158;2023-02-12T01:03:15;103249.28;;;11.42;49.17
17649;BME280;8943;51.110;-4.158;2023-02-12T01:05:43;103244.84;;;11.41;49.78
17649;BME280;8943;51.110;-4.158;2023-02-12T01:08:12;103249.38;;;11.39;49.42
17649;BME280;8943;51.110;-4.158;2023-02-12T01:10:40;103247.75;;;11.35;49.15
17649;BME280;8943;51.110;-4.158;2023-02-12T01:13:10;103247.97;;;11.29;48.94
17649;BME280;8943;51.110;-4.158;2023-02-12T01:15:41;103251.78;;;11.22;49.25
17649;BME280;8943;51.110;-4.158;2023-02-12T01:18:09;103243.06;;;11.17;49.29
17649;BME280;8943;51.110;-4.158;2023-02-12T01:20:38;103237.94;;;11.11;49.33
17649;BME280;8943;51.110;-4.158;2023-02-12T01:23:06;103245.19;;;11.07;49.52
17649;BME280;8943;51.110;-4.158;2023-02-12T01:25:36;103241.88;;;11.00;49.45
17649;BME280;8943;51.110;-4.158;2023-02-12T01:28:05;103233.97;;;10.97;49.29
17649;BME280;8943;51.110;-4.158;2023-02-12T01:30:33;103240.28;;;10.95;49.50
17649;BME280;8943;51.110;-4.158;2023-02-12T01:33:05;103243.91;;;10.92;49.35
17649;BME280;8943;51.110;-4.158;2023-02-12T01:35:32;103231.59;;;10.88;49.65
17649;BME280;8943;51.110;-4.158;2023-02-12T01:38:00;103223.81;;;10.82;49.35
17649;BME280;8943;51.110;-4.158;2023-02-12T01:40:28;103224.69;;;10.82;49.76
17649;BME280;8943;51.110;-4.158;2023-02-12T01:42:59;103223.03;;;10.80;49.71
17649;BME280;8943;51.110;-4.158;2023-02-12T01:45:43;103216.97;;;10.75;49.53
17649;BME280;8943;51.110;-4.158;2023-02-12T01:48:15;103218.00;;;10.71;49.70
17649;BME280;8943;51.110;-4.158;2023-02-12T01:50:45;103215.50;;;10.66;49.49
17649;BME280;8943;51.110;-4.158;2023-02-12T01:53:14;103222.72;;;10.63;49.58
17649;BME280;8943;51.110;-4.158;2023-02-12T01:55:51;103227.22;;;10.61;49.79
17649;BME280;8943;51.110;-4.158;2023-02-12T01:58:24;103232.56;;;10.61;50.01
17649;BME280;8943;51.110;-4.158;2023-02-12T02:00:53;103218.31;;;10.62;49.63
17649;BME280;8943;51.110;-4.158;2023-02-12T02:03:23;103227.09;;;10.64;49.70
17649;BME280;8943;51.110;-4.158;2023-02-12T02:05:54;103226.31;;;10.62;49.87
17649;BME280;8943;51.110;-4.158;2023-02-12T02:08:24;103222.78;;;10.61;49.68
17649;BME280;8943;51.110;-4.158;2023-02-12T02:10:52;103233.50;;;10.60;49.94
17649;BME280;8943;51.110;-4.158;2023-02-12T02:13:20;103227.31;;;10.57;49.83
17649;BME280;8943;51.110;-4.158;2023-02-12T02:16:11;103231.00;;;10.53;49.79
17649;BME280;8943;51.110;-4.158;2023-02-12T02:18:49;103224.06;;;10.49;49.68
17649;BME280;8943;51.110;-4.158;2023-02-12T02:24:36;103221.72;;;10.39;49.76
17649;BME280;8943;51.110;-4.158;2023-02-12T02:27:20;103225.31;;;10.38;49.76
17649;BME280;8943;51.110;-4.158;2023-02-12T02:30:25;103212.97;;;10.35;49.73
17649;BME280;8943;51.110;-4.158;2023-02-12T02:33:01;103210.41;;;10.32;50.05
17649;BME280;8943;51.110;-4.158;2023-02-12T02:35:38;103209.63;;;10.28;49.77
17649;BME280;8943;51.110;-4.158;2023-02-12T02:38:18;103208.00;;;10.23;50.00
17649;BME280;8943;51.110;-4.158;2023-02-12T02:40:54;103210.66;;;10.23;49.99
17649;BME280;8943;51.110;-4.158;2023-02-12T02:43:28;103209.00;;;10.19;49.87
17649;BME280;8943;51.110;-4.158;2023-02-12T02:46:03;103207.28;;;10.18;50.02
17649;BME280;8943;51.110;-4.158;2023-02-12T02:48:35;103207.38;;;10.15;49.76
17649;BME280;8943;51.110;-4.158;2023-02-12T02:51:08;103217.13;;;10.16;50.21
17649;BME280;8943;51.110;-4.158;2023-02-12T02:53:40;103213.63;;;10.14;49.87
17649;BME280;8943;51.110;-4.158;2023-02-12T02:56:13;103214.53;;;10.13;50.22
17649;BME280;8943;51.110;-4.158;2023-02-12T02:58:47;103220.81;;;10.12;50.11
17649;BME280;8943;51.110;-4.158;2023-02-12T03:01:21;103213.75;;;10.09;50.08
17649;BME280;8943;51.110;-4.158;2023-02-12T03:03:54;103216.53;;;10.06;50.39
17649;BME280;8943;51.110;-4.158;2023-02-12T03:06:29;103208.56;;;10.06;50.26
17649;BME280;8943;51.110;-4.158;2023-02-12T03:09:04;103205.91;;;10.04;50.38
17649;BME280;8943;51.110;-4.158;2023-02-12T03:11:34;103203.31;;;10.03;50.14
17649;BME280;8943;51.110;-4.158;2023-02-12T03:14:07;103200.78;;;9.98;50.21
17649;BME280;8943;51.110;-4.158;2023-02-12T03:16:43;103195.66;;;9.92;50.13
17649;BME280;8943;51.110;-4.158;2023-02-12T03:19:16;103187.91;;;9.85;50.04
17649;BME280;8943;51.110;-4.158;2023-02-12T03:21:48;103184.50;;;9.79;50.04
17649;BME280;8943;51.110;-4.158;2023-02-12T03:24:21;103175.72;;;9.76;50.20
17649;BME280;8943;51.110;-4.158;2023-02-12T03:26:53;103170.56;;;9.71;49.98
17649;BME280;8943;51.110;-4.158;2023-02-12T03:29:22;103175.94;;;9.70;50.37
17649;BME280;8943;51.110;-4.158;2023-02-12T03:32:02;103174.31;;;9.64;50.37
17649;BME280;8943;51.110;-4.158;2023-02-12T03:34:40;103175.31;;;9.62;50.33
17649;BME280;8943;51.110;-4.158;2023-02-12T03:37:16;103171.00;;;9.58;50.43
17649;BME280;8943;51.110;-4.158;2023-02-12T03:39:51;103171.06;;;9.54;50.62
17649;BME280;8943;51.110;-4.158;2023-02-12T03:42:29;103168.50;;;9.51;50.58
17649;BME280;8943;51.110;-4.158;2023-02-12T03:45:03;103167.72;;;9.48;50.53
17649;BME280;8943;51.110;-4.158;2023-02-12T03:47:43;103176.63;;;9.47;50.69
17649;BME280;8943;51.110;-4.158;2023-02-12T03:50:15;103176.66;;;9.45;50.49
17649;BME280;8943;51.110;-4.158;2023-02-12T03:52:44;103172.19;;;9.46;50.62
17649;BME280;8943;51.110;-4.158;2023-02-12T03:55:13;103171.31;;;9.47;50.57
17649;BME280;8943;51.110;-4.158;2023-02-12T03:57:43;103171.16;;;9.51;50.72
17649;BME280;8943;51.110;-4.158;2023-02-12T04:00:17;103176.41;;;9.54;50.58
17649;BME280;8943;51.110;-4.158;2023-02-12T04:02:47;103177.22;;;9.57;50.60
17649;BME280;8943;51.110;-4.158;2023-02-12T04:05:17;103175.47;;;9.55;50.42
17649;BME280;8943;51.110;-4.158;2023-02-12T04:07:46;103175.47;;;9.55;50.63
17649;BME280;8943;51.110;-4.158;2023-02-12T04:10:15;103172.00;;;9.53;50.45
17649;BME280;8943;51.110;-4.158;2023-02-12T04:12:46;103168.59;;;9.48;50.65
17649;BME280;8943;51.110;-4.158;2023-02-12T04:15:36;103174.91;;;9.44;50.56
17649;BME280;8943;51.110;-4.158;2023-02-12T04:18:16;103173.31;;;9.39;50.48
17649;BME280;8943;51.110;-4.158;2023-02-12T04:20:52;103168.13;;;9.34;50.62
17649;BME280;8943;51.110;-4.158;2023-02-12T04:23:34;103166.47;;;9.30;50.78
17649;BME280;8943;51.110;-4.158;2023-02-12T04:26:11;103172.78;;;9.26;50.65
17649;BME280;8943;51.110;-4.158;2023-02-12T04:28:46;103177.16;;;9.28;50.95
17649;BME280;8943;51.110;-4.158;2023-02-12T04:31:21;103170.91;;;9.29;50.80
17649;BME280;8943;51.110;-4.158;2023-02-12T04:33:59;103174.50;;;9.28;50.70
17649;BME280;8943;51.110;-4.158;2023-02-12T04:36:35;103175.38;;;9.29;50.88
17649;BME280;8943;51.110;-4.158;2023-02-12T04:39:08;103168.31;;;9.28;50.81
17649;BME280;8943;51.110;-4.158;2023-02-12T04:41:38;103168.25;;;9.29;50.90
17649;BME280;8943;51.110;-4.158;2023-02-12T04:44:18;103165.59;;;9.29;50.90
17649;BME280;8943;51.110;-4.158;2023-02-12T04:46:46;103158.47;;;9.30;51.00
17649;BME280;8943;51.110;-4.158;2023-02-12T04:49:17;103158.47;;;9.30;50.96
17649;BME280;8943;51.110;-4.158;2023-02-12T04:51:45;103157.63;;;9.29;50.94
17649;BME280;8943;51.110;-4.158;2023-02-12T04:54:14;103154.91;;;9.31;50.86
17649;BME280;8943;51.110;-4.158;2023-02-12T04:56:43;103151.34;;;9.32;50.91
17649;BME280;8943;51.110;-4.158;2023-02-12T04:59:12;103165.47;;;9.34;50.95
17649;BME280;8943;51.110;-4.158;2023-02-12T05:01:41;103159.16;;;9.38;51.02
17649;BME280;8943;51.110;-4.158;2023-02-12T05:04:10;103159.00;;;9.43;51.24
17649;BME280;8943;51.110;-4.158;2023-02-12T05:06:41;103149.19;;;9.45;51.21
17649;BME280;8943;51.110;-4.158;2023-02-12T05:09:13;103141.97;;;9.48;51.28
17649;BME280;8943;51.110;-4.158;2023-02-12T05:11:41;103159.59;;;9.52;51.04
17649;BME280;8943;51.110;-4.158;2023-02-12T05:14:11;103145.38;;;9.53;51.12
17649;BME280;8943;51.110;-4.158;2023-02-12T05:16:39;103146.19;;;9.55;51.20
17649;BME280;8943;51.110;-4.158;2023-02-12T05:19:07;103150.63;;;9.57;50.99
17649;BME280;8943;51.110;-4.158;2023-02-12T05:21:36;103150.63;;;9.57;51.00
17649;BME280;8943;51.110;-4.158;2023-02-12T05:24:06;103155.94;;;9.57;51.45
17649;BME280;8943;51.110;-4.158;2023-02-12T05:26:35;103163.00;;;9.58;51.13
17649;BME280;8943;51.110;-4.158;2023-02-12T05:29:03;103164.94;;;9.52;51.14
17649;BME280;8943;51.110;-4.158;2023-02-12T05:31:31;103166.75;;;9.50;50.96
17649;BME280;8943;51.110;-4.158;2023-02-12T05:33:59;103167.59;;;9.52;51.42
17649;BME280;8943;51.110;-4.158;2023-02-12T05:36:28;103163.03;;;9.56;51.79
17649;BME280;8943;51.110;-4.158;2023-02-12T05:38:57;103153.03;;;9.64;51.74
17649;BME280;8943;51.110;-4.158;2023-02-12T05:41:28;103155.28;;;9.78;51.41
17649;BME280;8943;51.110;-4.158;2023-02-12T05:44:01;103147.00;;;9.87;51.49
17649;BME280;8943;51.110;-4.158;2023-02-12T05:46:29;103155.44;;;10.00;51.56
17649;BME280;8943;51.110;-4.158;2023-02-12T05:48:57;103153.34;;;10.11;51.55
17649;BME280;8943;51.110;-4.158;2023-02-12T05:51:26;103154.00;;;10.18;51.49
17649;BME280;8943;51.110;-4.158;2023-02-12T05:53:56;103159.06;;;10.27;51.82
17649;BME280;8943;51.110;-4.158;2023-02-12T05:56:29;103142.91;;;10.31;51.59
17649;BME280;8943;51.110;-4.158;2023-02-12T05:58:59;103139.16;;;10.37;51.67
17649;BME280;8943;51.110;-4.158;2023-02-12T06:01:31;103145.13;;;10.45;51.36
17649;BME280;8943;51.110;-4.158;2023-02-12T06:04:00;103142.22;;;10.51;51.56
17649;BME280;8943;51.110;-4.158;2023-02-12T06:06:30;103151.72;;;10.60;51.99
17649;BME280;8943;51.110;-4.158;2023-02-12T06:08:58;103151.28;;;10.72;51.59
17649;BME280;8943;51.110;-4.158;2023-02-12T06:11:28;103154.53;;;10.80;51.75
17649;BME280;8943;51.110;-4.158;2023-02-12T06:13:56;103154.22;;;10.90;51.63
17649;BME280;8943;51.110;-4.158;2023-02-12T06:16:26;103147.69;;;10.98;51.56
17649;BME280;8943;51.110;-4.158;2023-02-12T06:18:55;103156.25;;;11.06;51.81
17649;BME280;8943;51.110;-4.158;2023-02-12T06:21:25;103154.19;;;11.15;51.47
17649;BME280;8943;51.110;-4.158;2023-02-12T06:23:53;103153.00;;;11.23;51.73
17649;BME280;8943;51.110;-4.158;2023-02-12T06:26:22;103153.63;;;11.30;51.75
17649;BME280;8943;51.110;-4.158;2023-02-12T06:28:52;103148.88;;;11.38;51.87
17649;BME280;8943;51.110;-4.158;2023-02-12T06:31:21;103145.84;;;11.47;51.91
17649;BME280;8943;51.110;-4.158;2023-02-12T06:33:51;103145.47;;;11.56;51.84
17649;BME280;8943;51.110;-4.158;2023-02-12T06:36:20;103147.00;;;11.64;51.68
17649;BME280;8943;51.110;-4.158;2023-02-12T06:38:48;103153.09;;;11.67;51.73
17649;BME280;8943;51.110;-4.158;2023-02-12T06:41:16;103139.41;;;11.75;51.71
17649;BME280;8943;51.110;-4.158;2023-02-12T06:43:44;103152.56;;;11.81;51.60
17649;BME280;8943;51.110;-4.158;2023-02-12T06:46:14;103145.09;;;11.89;51.76
17649;BME280;8943;51.110;-4.158;2023-02-12T06:48:42;103153.78;;;11.96;51.70
17649;BME280;8943;51.110;-4.158;2023-02-12T06:51:13;103144.44;;;12.06;51.57
17649;BME280;8943;51.110;-4.158;2023-02-12T06:53:42;103143.31;;;12.11;51.37
17649;BME280;8943;51.110;-4.158;2023-02-12T06:56:11;103148.31;;;12.19;51.68
17649;BME280;8943;51.110;-4.158;2023-02-12T06:58:41;103146.28;;;12.26;51.62
17649;BME280;8943;51.110;-4.158;2023-02-12T07:01:11;103151.25;;;12.35;51.53
17649;BME280;8943;51.110;-4.158;2023-02-12T07:03:43;103151.06;;;12.40;51.30
17649;BME280;8943;51.110;-4.158;2023-02-12T07:06:14;103141.06;;;12.43;51.29
17649;BME280;8943;51.110;-4.158;2023-02-12T07:08:42;103149.19;;;12.42;51.12
17649;BME280;8943;51.110;-4.158;2023-02-12T07:11:11;103145.75;;;12.38;51.17
17649;BME280;8943;51.110;-4.158;2023-02-12T07:13:40;103152.78;;;12.41;51.01
17649;BME280;8943;51.110;-4.158;2023-02-12T07:16:10;103145.63;;;12.41;51.32
17649;BME280;8943;51.110;-4.158;2023-02-12T07:18:39;103151.72;;;12.45;51.13
17649;BME280;8943;51.110;-4.158;2023-02-12T07:21:11;103149.84;;;12.47;50.88
17649;BME280;8943;51.110;-4.158;2023-02-12T07:23:40;103153.31;;;12.49;50.96
17649;BME280;8943;51.110;-4.158;2023-02-12T07:26:11;103161.09;;;12.55;50.84
17649;BME280;8943;51.110;-4.158;2023-02-12T07:28:39;103155.69;;;12.56;50.99
17649;BME280;8943;51.110;-4.158;2023-02-12T07:31:09;103165.31;;;12.60;50.89
17649;BME280;8943;51.110;-4.158;2023-02-12T07:33:38;103162.47;;;12.63;51.42
17649;BME280;8943;51.110;-4.158;2023-02-12T07:36:10;103164.09;;;12.68;51.02
17649;BME280;8943;51.110;-4.158;2023-02-12T07:38:39;103162.25;;;12.70;50.91
17649;BME280;8943;51.110;-4.158;2023-02-12T07:41:09;103161.31;;;12.71;50.54
17649;BME280;8943;51.110;-4.158;2023-02-12T07:43:39;103158.56;;;12.72;50.85
17649;BME280;8943;51.110;-4.158;2023-02-12T07:46:10;103165.59;;;12.75;50.55
17649;BME280;8943;51.110;-4.158;2023-02-12T07:48:39;103163.69;;;12.77;50.61
17649;BME280;8943;51.110;-4.158;2023-02-12T07:51:11;103159.28;;;12.76;50.60
17649;BME280;8943;51.110;-4.158;2023-02-12T07:53:40;103160.22;;;12.75;50.73
17649;BME280;8943;51.110;-4.158;2023-02-12T07:56:10;103161.19;;;12.74;50.57
17649;BME280;8943;51.110;-4.158;2023-02-12T07:58:40;103158.56;;;12.72;50.64
17649;BME280;8943;51.110;-4.158;2023-02-12T08:01:12;103166.56;;;12.72;50.56
17649;BME280;8943;51.110;-4.158;2023-02-12T08:03:41;103164.72;;;12.74;50.51
17649;BME280;8943;51.110;-4.158;2023-02-12T08:06:14;103169.22;;;12.74;50.52
17649;BME280;8943;51.110;-4.158;2023-02-12T08:08:42;103167.25;;;12.77;50.51
17649;BME280;8943;51.110;-4.158;2023-02-12T08:11:12;103168.94;;;12.80;50.53
17649;BME280;8943;51.110;-4.158;2023-02-12T08:13:40;103174.13;;;12.83;50.65
17649;BME280;8943;51.110;-4.158;2023-02-12T08:16:11;103166.75;;;12.88;50.54
17649;BME280;8943;51.110;-4.158;2023-02-12T08:18:39;103172.75;;;12.95;50.84
17649;BME280;8943;51.110;-4.158;2023-02-12T08:21:10;103180.56;;;12.99;50.68
17649;BME280;8943;51.110;-4.158;2023-02-12T08:23:40;103163.28;;;13.06;50.87
17649;BME280;8943;51.110;-4.158;2023-02-12T08:26:09;103160.31;;;13.12;50.65
17649;BME280;8943;51.110;-4.158;2023-02-12T08:28:40;103154.75;;;13.17;50.45
17649;BME280;8943;51.110;-4.158;2023-02-12T08:31:10;103156.34;;;13.23;50.53
17649;BME280;8943;51.110;-4.158;2023-02-12T08:33:39;103154.31;;;13.28;50.29
17649;BME280;8943;51.110;-4.158;2023-02-12T08:36:14;103153.22;;;13.32;50.53
17649;BME280;8943;51.110;-4.158;2023-02-12T08:38:45;103161.78;;;13.40;50.30
17649;BME280;8943;51.110;-4.158;2023-02-12T08:41:15;103149.78;;;13.49;50.41
17649;BME280;8943;51.110;-4.158;2023-02-12T08:43:47;103149.69;;;13.50;50.44
17649;BME280;8943;51.110;-4.158;2023-02-12T08:46:19;103142.16;;;13.58;50.29
17649;BME280;8943;51.110;-4.158;2023-02-12T08:48:50;103152.50;;;13.66;50.27
17649;BME280;8943;51.110;-4.158;2023-02-12T08:51:21;103145.06;;;13.73;50.21
17649;BME280;8943;51.110;-4.158;2023-02-12T08:53:55;103150.97;;;13.79;50.15
17649;BME280;8943;51.110;-4.158;2023-02-12T08:56:24;103150.75;;;13.84;50.38
17649;BME280;8943;51.110;-4.158;2023-02-12T08:58:52;103142.34;;;13.91;49.97
17649;BME280;8943;51.110;-4.158;2023-02-12T09:01:22;103144.00;;;13.94;50.11
17649;BME280;8943;51.110;-4.158;2023-02-12T09:03:51;103147.09;;;14.04;50.13
17649;BME280;8943;51.110;-4.158;2023-02-12T09:06:21;103146.09;;;14.06;49.75
17649;BME280;8943;51.110;-4.158;2023-02-12T09:08:52;103141.06;;;14.17;49.83
17649;BME280;8943;51.110;-4.158;2023-02-12T09:11:22;103143.50;;;14.22;49.91
17649;BME280;8943;51.110;-4.158;2023-02-12T09:13:57;103149.59;;;14.26;49.74
17649;BME280;8943;51.110;-4.158;2023-02-12T09:16:26;103144.63;;;14.35;49.56
17649;BME280;8943;51.110;-4.158;2023-02-12T09:18:54;103140.81;;;14.39;49.77
17649;BME280;8943;51.110;-4.158;2023-02-12T09:21:22;103139.53;;;14.48;49.64
17649;BME280;8943;51.110;-4.158;2023-02-12T09:23:52;103141.91;;;14.54;49.63
17649;BME280;8943;51.110;-4.158;2023-02-12T09:26:22;103143.31;;;14.61;49.83
17649;BME280;8943;51.110;-4.158;2023-02-12T09:28:52;103144.66;;;14.70;49.62
17649;BME280;8943;51.110;-4.158;2023-02-12T09:31:22;103146.31;;;14.73;49.37
17649;BME280;8943;51.110;-4.158;2023-02-12T09:33:53;103141.41;;;14.81;49.47
17649;BME280;8943;51.110;-4.158;2023-02-12T09:36:22;103147.41;;;14.86;49.25
17649;BME280;8943;51.110;-4.158;2023-02-12T09:38:52;103151.47;;;14.93;49.17
17649;BME280;8943;51.110;-4.158;2023-02-12T09:42:09;103149.34;;;15.00;49.15
17649;BME280;8943;51.110;-4.158;2023-02-12T09:44:47;103147.38;;;15.03;49.16
17649;BME280;8943;51.110;-4.158;2023-02-12T09:47:22;103148.78;;;15.10;49.04
17649;BME280;8943;51.110;-4.158;2023-02-12T09:50:05;103148.44;;;15.16;48.92
17649;BME280;8943;51.110;-4.158;2023-02-12T09:52:38;103152.78;;;15.19;48.66
17649;BME280;8943;51.110;-4.158;2023-02-12T09:55:12;103148.19;;;15.21;48.67
17649;BME280;8943;51.110;-4.158;2023-02-12T09:57:41;103152.53;;;15.24;48.64
17649;BME280;8943;51.110;-4.158;2023-02-12T10:00:14;103155.84;;;15.29;48.64
17649;BME280;8943;51.110;-4.158;2023-02-12T10:02:42;103153.84;;;15.32;48.85
17649;BME280;8943;51.110;-4.158;2023-02-12T10:05:15;103161.84;;;15.34;48.25
17649;BME280;8943;51.110;-4.158;2023-02-12T10:07:59;103149.59;;;15.28;48.39
17649;BME280;8943;51.110;-4.158;2023-02-12T10:10:45;103139.78;;;15.27;48.22
17649;BME280;8943;51.110;-4.158;2023-02-12T10:13:21;103144.22;;;15.28;48.38
17649;BME280;8943;51.110;-4.158;2023-02-12T10:15:58;103146.06;;;15.28;48.44
17649;BME280;8943;51.110;-4.158;2023-02-12T10:18:48;103143.97;;;15.33;48.41
17649;BME280;8943;51.110;-4.158;2023-02-12T10:21:27;103141.91;;;15.38;48.32
17649;BME280;8943;51.110;-4.158;2023-02-12T10:24:18;103147.09;;;15.41;47.90
17649;BME280;8943;51.110;-4.158;2023-02-12T10:26:54;103143.63;;;15.39;48.47
17649;BME280;8943;51.110;-4.158;2023-02-12T10:29:26;103146.94;;;15.44;48.27
17649;BME280;8943;51.110;-4.158;2023-02-12T10:31:59;103142.03;;;15.52;48.29
17649;BME280;8943;51.110;-4.158;2023-02-12T10:34:32;103142.44;;;15.60;48.28
17649;BME280;8943;51.110;-4.158;2023-02-12T10:37:04;103148.53;;;15.64;48.20
17649;BME280;8943;51.110;-4.158;2023-02-12T10:39:41;103146.63;;;15.66;48.26
17649;BME280;8943;51.110;-4.158;2023-02-12T10:42:16;103149.00;;;15.72;48.00
17649;BME280;8943;51.110;-4.158;2023-02-12T10:44:45;103138.84;;;15.77;47.95
17649;BME280;8943;51.110;-4.158;2023-02-12T10:47:17;103142.19;;;15.81;47.71
17649;BME280;8943;51.110;-4.158;2023-02-12T10:49:52;103151.50;;;15.91;47.57
17649;BME280;8943;51.110;-4.158;2023-02-12T10:52:32;103145.75;;;15.97;47.71
17649;BME280;8943;51.110;-4.158;2023-02-12T10:55:02;103144.69;;;16.00;47.01
17649;BME280;8943;51.110;-4.158;2023-02-12T10:57:32;103142.81;;;16.02;47.28
17649;BME280;8943;51.110;-4.158;2023-02-12T11:00:14;103133.69;;;16.04;47.59
17649;BME280;8943;51.110;-4.158;2023-02-12T11:03:03;103131.59;;;16.09;47.32
17649;BME280;8943;51.110;-4.158;2023-02-12T11:05:34;103133.03;;;16.15;47.25
17649;BME280;8943;51.110;-4.158;2023-02-12T11:08:04;103126.84;;;16.29;47.18
17649;BME280;8943;51.110;-4.158;2023-02-12T11:10:36;103130.47;;;16.43;47.09
17649;BME280;8943;51.110;-4.158;2023-02-12T11:13:21;103125.03;;;16.59;46.76
17649;BME280;8943;51.110;-4.158;2023-02-12T11:15:51;103133.06;;;16.75;47.23
17649;BME280;8943;51.110;-4.158;2023-02-12T11:18:21;103137.91;;;16.84;46.38
17649;BME280;8943;51.110;-4.158;2023-02-12T11:20:54;103141.16;;;16.89;46.16
17649;BME280;8943;51.110;-4.158;2023-02-12T11:23:25;103134.31;;;16.98;46.07
17649;BME280;8943;51.110;-4.158;2023-02-12T11:25:56;103131.34;;;17.03;45.91
17649;BME280;8943;51.110;-4.158;2023-02-12T11:28:27;103131.06;;;17.07;45.74
17649;BME280;8943;51.110;-4.158;2023-02-12T11:30:57;103131.47;;;17.15;45.54
17649;BME280;8943;51.110;-4.158;2023-02-12T11:33:31;103133.00;;;17.19;45.28
17649;BME280;8943;51.110;-4.158;2023-02-12T11:36:03;103112.78;;;17.27;45.16
17649;BME280;8943;51.110;-4.158;2023-02-12T11:38:35;103105.06;;;17.35;45.51
17649;BME280;8943;51.110;-4.158;2023-02-12T11:41:08;103099.84;;;17.46;45.16
17649;BME280;8943;51.110;-4.158;2023-02-12T11:43:48;103102.81;;;17.56;44.48
17649;BME280;8943;51.110;-4.158;2023-02-12T11:46:19;103100.78;;;17.59;44.44
17649;BME280;8943;51.110;-4.158;2023-02-12T11:48:50;103098.84;;;17.61;44.46
17649;BME280;8943;51.110;-4.158;2023-02-12T11:51:21;103096.81;;;17.65;44.19
17649;BME280;8943;51.110;-4.158;2023-02-12T11:53:54;103097.09;;;17.74;44.29
17649;BME280;8943;51.110;-4.158;2023-02-12T11:56:24;103086.75;;;17.81;44.04
17649;BME280;8943;51.110;-4.158;2023-02-12T11:59:10;103086.28;;;17.89;43.89
17649;BME280;8943;51.110;-4.158;2023-02-12T12:01:40;103087.81;;;17.93;43.80
17649;BME280;8943;51.110;-4.158;2023-02-12T12:04:10;103082.28;;;17.94;43.56
17649;BME280;8943;51.110;-4.158;2023-02-12T12:06:42;103082.75;;;18.01;43.52
17649;BME280;8943;51.110;-4.158;2023-02-12T12:09:15;103079.91;;;17.90;43.40
17649;BME280;8943;51.110;-4.158;2023-02-12T12:11:51;103071.06;;;17.88;43.31
17649;BME280;8943;51.110;-4.158;2023-02-12T12:14:28;103075.78;;;17.84;43.15
17649;BME280;8943;51.110;-4.158;2023-02-12T12:17:01;103088.97;;;17.89;43.28
17649;BME280;8943;51.110;-4.158;2023-02-12T12:19:53;103085.28;;;17.90;43.42
17649;BME280;8943;51.110;-4.158;2023-02-12T12:22:35;103071.31;;;17.97;43.46
17649;BME280;8943;51.110;-4.158;2023-02-12T12:25:14;103067.88;;;18.08;43.25
17649;BME280;8943;51.110;-4.158;2023-02-12T12:27:54;103067.25;;;18.17;43.26
17649;BME280;8943;51.110;-4.158;2023-02-12T12:30:53;103066.31;;;18.31;43.40
17649;BME280;8943;51.110;-4.158;2023-02-12T12:33:31;103062.53;;;18.46;43.02
17649;BME280;8943;51.110;-4.158;2023-02-12T12:36:27;103066.97;;;18.60;42.87
17649;BME280;8943;51.110;-4.158;2023-02-12T12:39:02;103053.72;;;18.70;42.45
17649;BME280;8943;51.110;-4.158;2023-02-12T12:41:41;103056.41;;;18.83;42.57
17649;BME280;8943;51.110;-4.158;2023-02-12T12:44:28;103049.47;;;18.91;42.20
17649;BME280;8943;51.110;-4.158;2023-02-12T12:47:13;103045.91;;;18.91;42.03
17649;BME280;8943;51.110;-4.158;2023-02-12T12:49:58;103040.97;;;18.85;42.07
17649;BME280;8943;51.110;-4.158;2023-02-12T12:52:49;103044.59;;;18.84;41.82
17649;BME280;8943;51.110;-4.158;2023-02-12T12:55:35;103049.59;;;18.90;41.46
17649;BME280;8943;51.110;-4.158;2023-02-12T12:58:14;103031.88;;;18.86;41.60
17649;BME280;8943;51.110;-4.158;2023-02-12T13:00:58;103032.94;;;18.83;41.68
17649;BME280;8943;51.110;-4.158;2023-02-12T13:03:53;103036.88;;;18.79;41.55
17649;BME280;8943;51.110;-4.158;2023-02-12T13:06:40;103029.72;;;18.78;41.47
17649;BME280;8943;51.110;-4.158;2023-02-12T13:12:37;103023.03;;;18.71;41.49
17649;BME280;8943;51.110;-4.158;2023-02-12T13:15:18;103020.63;;;18.66;41.06
17649;BME280;8943;51.110;-4.158;2023-02-12T13:17:53;103014.91;;;18.58;40.95
17649;BME280;8943;51.110;-4.158;2023-02-12T13:20:35;103006.16;;;18.42;41.10
17649;BME280;8943;51.110;-4.158;2023-02-12T13:23:11;102997.09;;;18.30;41.07
17649;BME280;8943;51.110;-4.158;2023-02-12T13:25:48;102995.69;;;18.12;41.04
17649;BME280;8943;51.110;-4.158;2023-02-12T13:28:26;103006.91;;;18.06;41.41